sensor_id;sensor_type;location;lat;lon;timestamp;pressure;altitude;pressure_sealevel;temperature;humidity
32324;BME280;25666;44.350;9.222;2023-06-14T00:01:43;101012.41;;;20.20;100.00
32324;BME280;25666;44.350;9.222;2023-06-14T00:04:11;101013.59;;;20.22;100.00
32324;BME280;25666;44.350;9.222;2023-06-14T00:06:38;101007.97;;;20.26;100.00
32324;BME280;25666;44.350;9.222;2023-06-14T00:09:03;101015.25;;;20.09;100.00
32324;BME280;25666;44.350;9.222;2023-06-14T00:11:30;101007.22;;;20.01;100.00
32324;BME280;25666;44.350;9.222;2023-06-14T00:13:56;101011.25;;;20.07;100.00
32324;BME280;25666;44.350;9.222;2023-06-14T00:16:23;101005.13;;;20.22;100.00
32324;BME280;25666;44.350;9.222;2023-06-14T00:18:49;101005.53;;;20.28;100.00
32324;BME280;25666;44.350;9.222;2023-06-14T00:21:18;101013.63;;;20.26;100.00
32324;BME280;25666;44.350;9.222;2023-06-14T00:23:44;101005.53;;;20.21;100.00
32324;BME280;25666;44.350;9.222;2023-06-14T00:26:10;100994.19;;;20.24;100.00
32324;BME280;25666;44.350;9.222;2023-06-14T00:28:37;100991.81;;;20.23;100.00
32324;BME280;25666;44.350;9.222;2023-06-14T00:31:05;100993.41;;;20.27;100.00
32324;BME280;25666;44.350;9.222;2023-06-14T00:33:31;100994.22;;;20.21;100.00
32324;BME280;25666;44.350;9.222;2023-06-14T00:35:56;100980.88;;;20.25;100.00
32324;BME280;25666;44.350;9.222;2023-06-14T00:38:22;100980.09;;;20.17;100.00
32324;BME280;25666;44.350;9.222;2023-06-14T00:40:47;100975.69;;;20.16;100.00
32324;BME280;25666;44.350;9.222;2023-06-14T00:43:13;100969.66;;;20.07;100.00
32324;BME280;25666;44.350;9.222;2023-06-14T00:45:38;100967.28;;;19.95;100.00
32324;BME280;25666;44.350;9.222;2023-06-14T00:48:05;100966.41;;;20.09;100.00
32324;BME280;25666;44.350;9.222;2023-06-14T00:50:34;100959.91;;;20.22;100.00
32324;BME280;25666;44.350;9.222;2023-06-14T00:53:01;100959.53;;;20.17;100.00
32324;BME280;25666;44.350;9.222;2023-06-14T00:55:28;100958.28;;;20.18;100.00
32324;BME280;25666;44.350;9.222;2023-06-14T00:57:55;100957.91;;;20.16;100.00
32324;BME280;25666;44.350;9.222;2023-06-14T01:00:21;100951.44;;;20.19;100.00
32324;BME280;25666;44.350;9.222;2023-06-14T01:02:47;100958.28;;;20.21;100.00
32324;BME280;25666;44.350;9.222;2023-06-14T01:05:13;100948.22;;;20.13;100.00
32324;BME280;25666;44.350;9.222;2023-06-14T01:10:38;100949.06;;;20.10;100.00
32324;BME280;25666;44.350;9.222;2023-06-14T01:13:38;100949.44;;;20.16;100.00
32324;BME280;25666;44.350;9.222;2023-06-14T01:16:05;100947.41;;;20.20;100.00
32324;BME280;25666;44.350;9.222;2023-06-14T01:18:32;100949.00;;;20.21;100.00
32324;BME280;25666;44.350;9.222;2023-06-14T01:21:01;100943.34;;;20.17;100.00
32324;BME280;25666;44.350;9.222;2023-06-14T01:23:31;100949.81;;;20.21;100.00
32324;BME280;25666;44.350;9.222;2023-06-14T01:25:59;100939.78;;;20.06;100.00
32324;BME280;25666;44.350;9.222;2023-06-14T01:28:26;100940.16;;;20.12;100.00
32324;BME280;25666;44.350;9.222;2023-06-14T01:30:59;100941.75;;;20.16;100.00
32324;BME280;25666;44.350;9.222;2023-06-14T01:33:30;100941.75;;;20.20;100.00
32324;BME280;25666;44.350;9.222;2023-06-14T01:35:57;100935.28;;;20.23;100.00
32324;BME280;25666;44.350;9.222;2023-06-14T01:38:25;100928.81;;;20.26;100.00
32324;BME280;25666;44.350;9.222;2023-06-14T01:40:52;100939.69;;;20.20;100.00
32324;BME280;25666;44.350;9.222;2023-06-14T01:43:19;100936.47;;;20.22;100.00
32324;BME280;25666;44.350;9.222;2023-06-14T01:45:47;100938.09;;;20.19;100.00
32324;BME280;25666;44.350;9.222;2023-06-14T01:48:13;100936.50;;;20.11;100.00
32324;BME280;25666;44.350;9.222;2023-06-14T01:50:39;100934.47;;;20.15;100.00
32324;BME280;25666;44.350;9.222;2023-06-14T01:53:09;100933.69;;;20.15;100.00
32324;BME280;25666;44.350;9.222;2023-06-14T01:55:36;100940.97;;;20.12;100.00
32324;BME280;25666;44.350;9.222;2023-06-14T01:58:09;100934.03;;;20.20;100.00
32324;BME280;25666;44.350;9.222;2023-06-14T02:00:35;100942.94;;;20.19;100.00
32324;BME280;25666;44.350;9.222;2023-06-14T02:03:01;100934.88;;;20.17;100.00
32324;BME280;25666;44.350;9.222;2023-06-14T02:05:27;100937.31;;;20.15;100.00
32324;BME280;25666;44.350;9.222;2023-06-14T02:07:53;100936.50;;;20.11;100.00
32324;BME280;25666;44.350;9.222;2023-06-14T02:10:19;100937.75;;;20.10;100.00
32324;BME280;25666;44.350;9.222;2023-06-14T02:12:46;100946.63;;;20.12;100.00
32324;BME280;25666;44.350;9.222;2023-06-14T02:15:11;100945.78;;;20.15;100.00
32324;BME280;25666;44.350;9.222;2023-06-14T02:17:45;100930.47;;;20.09;100.00
32324;BME280;25666;44.350;9.222;2023-06-14T02:20:13;100936.94;;;20.13;100.00
32324;BME280;25666;44.350;9.222;2023-06-14T02:22:38;100934.94;;;20.10;100.00
32324;BME280;25666;44.350;9.222;2023-06-14T02:25:06;100934.13;;;20.10;100.00
32324;BME280;25666;44.350;9.222;2023-06-14T02:27:33;100932.09;;;20.10;100.00
32324;BME280;25666;44.350;9.222;2023-06-14T02:29:59;100936.97;;;20.03;100.00
32324;BME280;25666;44.350;9.222;2023-06-14T02:32:25;100929.69;;;20.02;100.00
32324;BME280;25666;44.350;9.222;2023-06-14T02:34:53;100927.69;;;20.02;100.00
32324;BME280;25666;44.350;9.222;2023-06-14T02:37:19;100926.09;;;19.94;100.00
32324;BME280;25666;44.350;9.222;2023-06-14T02:39:45;100931.75;;;20.01;100.00
32324;BME280;25666;44.350;9.222;2023-06-14T02:42:11;100923.28;;;19.98;100.00
32324;BME280;25666;44.350;9.222;2023-06-14T02:44:36;100936.59;;;19.97;100.00
32324;BME280;25666;44.350;9.222;2023-06-14T02:47:03;100933.75;;;20.01;100.00
32324;BME280;25666;44.350;9.222;2023-06-14T02:49:28;100930.91;;;20.04;100.00
32324;BME280;25666;44.350;9.222;2023-06-14T02:51:55;100937.75;;;20.10;100.00
32324;BME280;25666;44.350;9.222;2023-06-14T02:54:20;100937.78;;;19.96;100.00
32324;BME280;25666;44.350;9.222;2023-06-14T02:56:47;100945.03;;;20.04;100.00
32324;BME280;25666;44.350;9.222;2023-06-14T02:59:12;100953.16;;;19.95;100.00
32324;BME280;25666;44.350;9.222;2023-06-14T03:01:39;100947.47;;;20.02;100.00
32324;BME280;25666;44.350;9.222;2023-06-14T03:04:08;100949.06;;;20.03;100.00
32324;BME280;25666;44.350;9.222;2023-06-14T03:06:36;100947.88;;;20.04;100.00
32324;BME280;25666;44.350;9.222;2023-06-14T03:09:03;100953.53;;;19.97;100.00
32324;BME280;25666;44.350;9.222;2023-06-14T03:11:35;100957.19;;;19.91;100.00
32324;BME280;25666;44.350;9.222;2023-06-14T03:14:01;100949.91;;;19.97;100.00
32324;BME280;25666;44.350;9.222;2023-06-14T03:16:30;100960.84;;;19.91;100.00
32324;BME280;25666;44.350;9.222;2023-06-14T03:18:57;100954.75;;;19.96;100.00
32324;BME280;25666;44.350;9.222;2023-06-14T03:21:25;100950.28;;;19.99;100.00
32324;BME280;25666;44.350;9.222;2023-06-14T03:23:52;100953.56;;;19.90;100.00
32324;BME280;25666;44.350;9.222;2023-06-14T03:26:18;100949.09;;;19.93;100.00
32324;BME280;25666;44.350;9.222;2023-06-14T03:28:46;100956.00;;;19.88;100.00
32324;BME280;25666;44.350;9.222;2023-06-14T03:31:13;100955.19;;;19.91;100.00
32324;BME280;25666;44.350;9.222;2023-06-14T03:33:39;100949.94;;;19.86;100.00
32324;BME280;25666;44.350;9.222;2023-06-14T03:36:06;100947.09;;;19.86;100.00
32324;BME280;25666;44.350;9.222;2023-06-14T03:38:32;100947.50;;;19.92;100.00
32324;BME280;25666;44.350;9.222;2023-06-14T03:40:58;100952.44;;;19.70;100.00
32324;BME280;25666;44.350;9.222;2023-06-14T03:43:24;100950.78;;;19.80;100.00
32324;BME280;25666;44.350;9.222;2023-06-14T03:45:51;100949.94;;;19.90;100.00
32324;BME280;25666;44.350;9.222;2023-06-14T03:48:17;100945.13;;;19.80;100.00
32324;BME280;25666;44.350;9.222;2023-06-14T03:50:43;100949.16;;;19.78;100.00
32324;BME280;25666;44.350;9.222;2023-06-14T03:53:10;100952.00;;;19.75;100.00
32324;BME280;25666;44.350;9.222;2023-06-14T03:55:39;100945.09;;;19.90;100.00
32324;BME280;25666;44.350;9.222;2023-06-14T03:58:04;100949.94;;;19.90;100.00
32324;BME280;25666;44.350;9.222;2023-06-14T04:00:31;100958.81;;;19.92;100.00
32324;BME280;25666;44.350;9.222;2023-06-14T04:02:58;100961.19;;;20.00;100.00
32324;BME280;25666;44.350;9.222;2023-06-14T04:05:24;100957.94;;;20.09;100.00
32324;BME280;25666;44.350;9.222;2023-06-14T04:07:52;100963.59;;;20.09;100.00
32324;BME280;25666;44.350;9.222;2023-06-14T04:10:21;100970.78;;;20.20;100.00
32324;BME280;25666;44.350;9.222;2023-06-14T04:12:47;100963.56;;;20.26;100.00
32324;BME280;25666;44.350;9.222;2023-06-14T04:15:12;100961.13;;;20.18;100.00
32324;BME280;25666;44.350;9.222;2023-06-14T04:17:39;100964.34;;;20.20;100.00
32324;BME280;25666;44.350;9.222;2023-06-14T04:20:05;100967.94;;;20.35;100.00
32324;BME280;25666;44.350;9.222;2023-06-14T04:22:34;100971.22;;;20.29;100.00
32324;BME280;25666;44.350;9.222;2023-06-14T04:25:00;100968.78;;;20.28;100.00
32324;BME280;25666;44.350;9.222;2023-06-14T04:27:27;100974.81;;;20.30;100.00
32324;BME280;25666;44.350;9.222;2023-06-14T04:29:57;100974.78;;;20.37;100.00
32324;BME280;25666;44.350;9.222;2023-06-14T04:32:29;100969.13;;;20.41;100.00
32324;BME280;25666;44.350;9.222;2023-06-14T04:34:59;100966.75;;;20.36;100.00
32324;BME280;25666;44.350;9.222;2023-06-14T04:37:28;100975.56;;;20.45;100.00
32324;BME280;25666;44.350;9.222;2023-06-14T04:39:55;100973.56;;;20.45;100.00
32324;BME280;25666;44.350;9.222;2023-06-14T04:42:22;100976.34;;;20.49;100.00
32324;BME280;25666;44.350;9.222;2023-06-14T04:44:53;100974.75;;;20.44;100.00
32324;BME280;25666;44.350;9.222;2023-06-14T04:47:22;100972.41;;;20.32;100.00
32324;BME280;25666;44.350;9.222;2023-06-14T04:49:47;100967.56;;;20.29;100.00
32324;BME280;25666;44.350;9.222;2023-06-14T04:52:13;100974.81;;;20.34;100.00
32324;BME280;25666;44.350;9.222;2023-06-14T04:54:41;100976.03;;;20.33;100.00
32324;BME280;25666;44.350;9.222;2023-06-14T04:57:08;100987.72;;;20.42;100.00
32324;BME280;25666;44.350;9.222;2023-06-14T04:59:40;100987.25;;;20.47;100.00
32324;BME280;25666;44.350;9.222;2023-06-14T05:02:06;100988.47;;;20.49;100.00
32324;BME280;25666;44.350;9.222;2023-06-14T05:04:33;100990.47;;;20.52;100.00
32324;BME280;25666;44.350;9.222;2023-06-14T05:06:59;100986.03;;;20.51;100.00
32324;BME280;25666;44.350;9.222;2023-06-14T05:09:24;100989.63;;;20.59;100.00
32324;BME280;25666;44.350;9.222;2023-06-14T05:11:50;100994.09;;;20.53;100.00
32324;BME280;25666;44.350;9.222;2023-06-14T05:14:16;100990.13;;;20.40;100.00
32324;BME280;25666;44.350;9.222;2023-06-14T05:16:43;100989.69;;;20.48;100.00
32324;BME280;25666;44.350;9.222;2023-06-14T05:19:09;100988.75;;;20.69;100.00
32324;BME280;25666;44.350;9.222;2023-06-14T05:21:36;100987.91;;;20.79;100.00
32324;BME280;25666;44.350;9.222;2023-06-14T05:24:02;100985.06;;;20.82;100.00
32324;BME280;25666;44.350;9.222;2023-06-14T05:26:28;100989.91;;;20.82;100.00
32324;BME280;25666;44.350;9.222;2023-06-14T05:28:57;100985.44;;;20.84;100.00
32324;BME280;25666;44.350;9.222;2023-06-14T05:31:24;100997.56;;;20.85;100.00
32324;BME280;25666;44.350;9.222;2023-06-14T05:33:51;100993.50;;;20.86;100.00
32324;BME280;25666;44.350;9.222;2023-06-14T05:36:17;100995.91;;;20.91;100.00
32324;BME280;25666;44.350;9.222;2023-06-14T05:38:43;101000.72;;;20.94;100.00
32324;BME280;25666;44.350;9.222;2023-06-14T05:41:09;101005.53;;;21.01;100.00
32324;BME280;25666;44.350;9.222;2023-06-14T05:43:34;101001.84;;;21.11;100.00
32324;BME280;25666;44.350;9.222;2023-06-14T05:46:00;100999.03;;;21.11;100.00
32324;BME280;25666;44.350;9.222;2023-06-14T05:48:25;100993.19;;;21.32;100.00
32324;BME280;25666;44.350;9.222;2023-06-14T05:50:51;100985.47;;;21.36;100.00
32324;BME280;25666;44.350;9.222;2023-06-14T05:53:17;100989.66;;;21.62;100.00
32324;BME280;25666;44.350;9.222;2023-06-14T05:55:43;100990.03;;;21.67;100.00
32324;BME280;25666;44.350;9.222;2023-06-14T05:58:08;100987.53;;;21.73;100.00
32324;BME280;25666;44.350;9.222;2023-06-14T06:00:34;100984.72;;;21.69;100.00
32324;BME280;25666;44.350;9.222;2023-06-14T06:02:59;100991.59;;;21.72;100.00
32324;BME280;25666;44.350;9.222;2023-06-14T06:05:26;100981.19;;;21.58;100.00
32324;BME280;25666;44.350;9.222;2023-06-14T06:07:51;100979.03;;;21.73;100.00
32324;BME280;25666;44.350;9.222;2023-06-14T06:10:17;100972.91;;;21.78;100.00
32324;BME280;25666;44.350;9.222;2023-06-14T06:12:43;100975.63;;;21.92;100.00
32324;BME280;25666;44.350;9.222;2023-06-14T06:15:09;100975.03;;;22.08;100.00
32324;BME280;25666;44.350;9.222;2023-06-14T06:17:41;100978.56;;;22.15;100.00
32324;BME280;25666;44.350;9.222;2023-06-14T06:20:07;100974.38;;;22.27;100.00
32324;BME280;25666;44.350;9.222;2023-06-14T06:22:36;100978.41;;;22.29;100.00
32324;BME280;25666;44.350;9.222;2023-06-14T06:25:02;100978.19;;;22.43;100.00
32324;BME280;25666;44.350;9.222;2023-06-14T06:27:28;100985.13;;;22.73;100.00
32324;BME280;25666;44.350;9.222;2023-06-14T06:29:53;100960.09;;;24.27;100.00
32324;BME280;25666;44.350;9.222;2023-06-14T06:32:19;100952.97;;;26.67;100.00
32324;BME280;25666;44.350;9.222;2023-06-14T06:34:45;100941.22;;;31.87;100.00
32324;BME280;25666;44.350;9.222;2023-06-14T06:37:11;100936.78;;;33.58;100.00
32324;BME280;25666;44.350;9.222;2023-06-14T06:39:36;100940.88;;;34.64;100.00
32324;BME280;25666;44.350;9.222;2023-06-14T06:42:02;100931.47;;;34.69;100.00
32324;BME280;25666;44.350;9.222;2023-06-14T06:44:35;100940.78;;;37.11;82.65
32324;BME280;25666;44.350;9.222;2023-06-14T06:47:00;100938.63;;;36.50;83.51
32324;BME280;25666;44.350;9.222;2023-06-14T06:49:26;100940.88;;;38.91;69.22
32324;BME280;25666;44.350;9.222;2023-06-14T06:52:03;100941.59;;;35.75;87.87
32324;BME280;25666;44.350;9.222;2023-06-14T06:54:29;100938.97;;;31.91;100.00
32324;BME280;25666;44.350;9.222;2023-06-14T06:56:54;100949.53;;;29.85;100.00
32324;BME280;25666;44.350;9.222;2023-06-14T06:59:20;100955.53;;;30.92;100.00
32324;BME280;25666;44.350;9.222;2023-06-14T07:01:46;100961.03;;;30.81;100.00
32324;BME280;25666;44.350;9.222;2023-06-14T07:04:13;100949.72;;;29.23;100.00
32324;BME280;25666;44.350;9.222;2023-06-14T07:06:38;100960.63;;;27.80;100.00
32324;BME280;25666;44.350;9.222;2023-06-14T07:09:04;100961.16;;;26.81;100.00
32324;BME280;25666;44.350;9.222;2023-06-14T07:11:33;100968.00;;;26.29;100.00
32324;BME280;25666;44.350;9.222;2023-06-14T07:13:59;100973.81;;;25.68;100.00
32324;BME280;25666;44.350;9.222;2023-06-14T07:16:25;100973.63;;;25.43;100.00
32324;BME280;25666;44.350;9.222;2023-06-14T07:18:51;100976.03;;;24.96;100.00
32324;BME280;25666;44.350;9.222;2023-06-14T07:21:17;100974.31;;;24.63;100.00
32324;BME280;25666;44.350;9.222;2023-06-14T07:23:43;100981.28;;;24.78;100.00
32324;BME280;25666;44.350;9.222;2023-06-14T07:26:08;100981.41;;;24.74;100.00
32324;BME280;25666;44.350;9.222;2023-06-14T07:28:34;100984.75;;;24.69;100.00
32324;BME280;25666;44.350;9.222;2023-06-14T07:31:00;100988.31;;;24.73;100.00
32324;BME280;25666;44.350;9.222;2023-06-14T07:33:25;100979.50;;;24.68;100.00
32324;BME280;25666;44.350;9.222;2023-06-14T07:35:51;100985.97;;;24.52;100.00
32324;BME280;25666;44.350;9.222;2023-06-14T07:38:18;100978.59;;;24.55;100.00
32324;BME280;25666;44.350;9.222;2023-06-14T07:40:43;100988.06;;;24.48;100.00
32324;BME280;25666;44.350;9.222;2023-06-14T07:43:09;100995.94;;;24.40;100.00
32324;BME280;25666;44.350;9.222;2023-06-14T07:45:34;100992.91;;;24.31;100.00
32324;BME280;25666;44.350;9.222;2023-06-14T07:48:00;100996.81;;;24.37;100.00
32324;BME280;25666;44.350;9.222;2023-06-14T07:50:25;100996.41;;;24.39;100.00
32324;BME280;25666;44.350;9.222;2023-06-14T07:52:51;101000.41;;;24.41;100.00
32324;BME280;25666;44.350;9.222;2023-06-14T07:55:17;101005.88;;;24.52;100.00
32324;BME280;25666;44.350;9.222;2023-06-14T07:57:42;101009.44;;;24.56;100.00
32324;BME280;25666;44.350;9.222;2023-06-14T08:00:10;101014.03;;;24.50;100.00
32324;BME280;25666;44.350;9.222;2023-06-14T08:02:44;101016.38;;;24.55;100.00
32324;BME280;25666;44.350;9.222;2023-06-14T08:05:10;101019.84;;;24.27;100.00
32324;BME280;25666;44.350;9.222;2023-06-14T08:07:37;101021.88;;;24.26;100.00
32324;BME280;25666;44.350;9.222;2023-06-14T08:10:04;101023.78;;;24.33;100.00
32324;BME280;25666;44.350;9.222;2023-06-14T08:12:29;101036.38;;;24.32;100.00
32324;BME280;25666;44.350;9.222;2023-06-14T08:14:55;101036.84;;;24.30;100.00
32324;BME280;25666;44.350;9.222;2023-06-14T08:17:20;101030.81;;;24.25;100.00
32324;BME280;25666;44.350;9.222;2023-06-14T08:19:46;101035.88;;;24.17;100.00
32324;BME280;25666;44.350;9.222;2023-06-14T08:22:12;101036.75;;;24.14;100.00
32324;BME280;25666;44.350;9.222;2023-06-14T08:24:38;101039.88;;;24.20;100.00
32324;BME280;25666;44.350;9.222;2023-06-14T08:27:05;101039.81;;;24.23;100.00
32324;BME280;25666;44.350;9.222;2023-06-14T08:29:31;101039.09;;;24.39;100.00
32324;BME280;25666;44.350;9.222;2023-06-14T08:31:57;101044.31;;;24.80;100.00
32324;BME280;25666;44.350;9.222;2023-06-14T08:34:23;101044.38;;;24.96;100.00
32324;BME280;25666;44.350;9.222;2023-06-14T08:36:51;101043.41;;;25.02;100.00
32324;BME280;25666;44.350;9.222;2023-06-14T08:39:17;101036.47;;;25.20;100.00
32324;BME280;25666;44.350;9.222;2023-06-14T08:41:46;101036.66;;;25.29;100.00
32324;BME280;25666;44.350;9.222;2023-06-14T08:44:18;101041.13;;;25.46;100.00
32324;BME280;25666;44.350;9.222;2023-06-14T08:46:44;101044.72;;;25.66;100.00
32324;BME280;25666;44.350;9.222;2023-06-14T08:49:12;101036.94;;;25.83;100.00
32324;BME280;25666;44.350;9.222;2023-06-14T08:51:38;101042.06;;;26.04;100.00
32324;BME280;25666;44.350;9.222;2023-06-14T08:54:06;101034.88;;;25.99;100.00
32324;BME280;25666;44.350;9.222;2023-06-14T08:56:32;101032.50;;;26.10;100.00
32324;BME280;25666;44.350;9.222;2023-06-14T08:59:00;101033.53;;;25.88;100.00
32324;BME280;25666;44.350;9.222;2023-06-14T09:01:36;101035.13;;;26.05;100.00
32324;BME280;25666;44.350;9.222;2023-06-14T09:04:02;101037.78;;;25.67;100.00
32324;BME280;25666;44.350;9.222;2023-06-14T09:06:31;101034.88;;;25.35;100.00
32324;BME280;25666;44.350;9.222;2023-06-14T09:08:57;101031.06;;;25.25;100.00
32324;BME280;25666;44.350;9.222;2023-06-14T09:11:23;101035.09;;;24.92;100.00
32324;BME280;25666;44.350;9.222;2023-06-14T09:13:49;101028.41;;;24.82;100.00
32324;BME280;25666;44.350;9.222;2023-06-14T09:16:15;101036.44;;;24.68;100.00
32324;BME280;25666;44.350;9.222;2023-06-14T09:18:46;101037.53;;;25.10;100.00
32324;BME280;25666;44.350;9.222;2023-06-14T09:21:14;101032.91;;;25.16;100.00
32324;BME280;25666;44.350;9.222;2023-06-14T09:23:42;101040.78;;;25.28;100.00
32324;BME280;25666;44.350;9.222;2023-06-14T09:26:14;101029.97;;;25.03;100.00
32324;BME280;25666;44.350;9.222;2023-06-14T09:28:45;101037.69;;;24.86;100.00
32324;BME280;25666;44.350;9.222;2023-06-14T09:31:18;101038.22;;;24.97;100.00
32324;BME280;25666;44.350;9.222;2023-06-14T09:33:49;101040.59;;;25.35;100.00
32324;BME280;25666;44.350;9.222;2023-06-14T09:36:21;101035.44;;;25.46;100.00
32324;BME280;25666;44.350;9.222;2023-06-14T09:39:00;101024.94;;;25.43;100.00
32324;BME280;25666;44.350;9.222;2023-06-14T09:41:34;101021.81;;;25.53;100.00
32324;BME280;25666;44.350;9.222;2023-06-14T09:44:00;101022.44;;;25.61;100.00
32324;BME280;25666;44.350;9.222;2023-06-14T09:46:28;101012.03;;;25.71;100.00
32324;BME280;25666;44.350;9.222;2023-06-14T09:49:00;101019.31;;;25.23;100.00
32324;BME280;25666;44.350;9.222;2023-06-14T09:51:27;101009.22;;;25.19;100.00
32324;BME280;25666;44.350;9.222;2023-06-14T09:53:59;101019.25;;;25.59;100.00
32324;BME280;25666;44.350;9.222;2023-06-14T09:56:29;101016.84;;;25.58;100.00
32324;BME280;25666;44.350;9.222;2023-06-14T09:58:56;101021.47;;;25.68;100.00
32324;BME280;25666;44.350;9.222;2023-06-14T10:01:28;101021.28;;;25.75;100.00
32324;BME280;25666;44.350;9.222;2023-06-14T10:04:04;101018.06;;;25.73;100.00
32324;BME280;25666;44.350;9.222;2023-06-14T10:06:31;101018.34;;;25.30;100.00
32324;BME280;25666;44.350;9.222;2023-06-14T10:08:58;101019.22;;;25.27;100.00
32324;BME280;25666;44.350;9.222;2023-06-14T10:11:28;101022.41;;;25.29;100.00
32324;BME280;25666;44.350;9.222;2023-06-14T10:13:55;101024.09;;;25.10;100.00
32324;BME280;25666;44.350;9.222;2023-06-14T10:16:27;101015.19;;;24.92;100.00
32324;BME280;25666;44.350;9.222;2023-06-14T10:19:17;101029.06;;;24.90;100.00
32324;BME280;25666;44.350;9.222;2023-06-14T10:22:01;101030.75;;;25.03;100.00
32324;BME280;25666;44.350;9.222;2023-06-14T10:24:31;101026.94;;;25.10;100.00
32324;BME280;25666;44.350;9.222;2023-06-14T10:26:58;101015.72;;;25.19;100.00
32324;BME280;25666;44.350;9.222;2023-06-14T10:29:28;101016.63;;;25.16;100.00
32324;BME280;25666;44.350;9.222;2023-06-14T10:31:58;101022.06;;;25.27;100.00
32324;BME280;25666;44.350;9.222;2023-06-14T10:34:26;101027.59;;;24.82;100.00
32324;BME280;25666;44.350;9.222;2023-06-14T10:37:12;101028.50;;;24.39;100.00
32324;BME280;25666;44.350;9.222;2023-06-14T10:39:40;101017.94;;;24.20;100.00
32324;BME280;25666;44.350;9.222;2023-06-14T10:42:11;101018.06;;;24.33;100.00
32324;BME280;25666;44.350;9.222;2023-06-14T10:44:49;101016.69;;;24.41;100.00
32324;BME280;25666;44.350;9.222;2023-06-14T10:52:27;101028.22;;;23.91;100.00
32324;BME280;25666;44.350;9.222;2023-06-14T10:57:35;101028.16;;;23.94;100.00
32324;BME280;25666;44.350;9.222;2023-06-14T11:00:01;101032.16;;;24.20;100.00
32324;BME280;25666;44.350;9.222;2023-06-14T11:05:08;101024.84;;;24.19;100.00
32324;BME280;25666;44.350;9.222;2023-06-14T11:12:48;101020.84;;;24.17;100.00
32324;BME280;25666;44.350;9.222;2023-06-14T11:15:14;101015.72;;;24.47;100.00
32324;BME280;25666;44.350;9.222;2023-06-14T11:17:50;101024.72;;;24.46;100.00
32324;BME280;25666;44.350;9.222;2023-06-14T11:20:17;101020.84;;;24.36;100.00
32324;BME280;25666;44.350;9.222;2023-06-14T11:22:43;101022.97;;;24.32;100.00
32324;BME280;25666;44.350;9.222;2023-06-14T11:25:09;101033.25;;;24.03;100.00
32324;BME280;25666;44.350;9.222;2023-06-14T11:27:35;101024.66;;;24.30;100.00
32324;BME280;25666;44.350;9.222;2023-06-14T11:30:01;101026.00;;;24.22;100.00
32324;BME280;25666;44.350;9.222;2023-06-14T11:32:27;101016.00;;;24.53;100.00
32324;BME280;25666;44.350;9.222;2023-06-14T11:34:53;101019.38;;;24.48;100.00
32324;BME280;25666;44.350;9.222;2023-06-14T11:37:19;101017.47;;;24.22;100.00
32324;BME280;25666;44.350;9.222;2023-06-14T11:39:45;101023.16;;;24.22;100.00
32324;BME280;25666;44.350;9.222;2023-06-14T11:42:17;101018.75;;;23.97;100.00
32324;BME280;25666;44.350;9.222;2023-06-14T11:44:46;101013.81;;;24.02;100.00
32324;BME280;25666;44.350;9.222;2023-06-14T11:47:12;101016.34;;;23.96;100.00
32324;BME280;25666;44.350;9.222;2023-06-14T11:49:38;101023.78;;;24.10;100.00
32324;BME280;25666;44.350;9.222;2023-06-14T11:52:04;101015.47;;;23.99;100.00
32324;BME280;25666;44.350;9.222;2023-06-14T11:54:32;101013.28;;;24.07;100.00
32324;BME280;25666;44.350;9.222;2023-06-14T11:56:58;101003.16;;;24.06;100.00
32324;BME280;25666;44.350;9.222;2023-06-14T11:59:24;101009.63;;;24.06;100.00
32324;BME280;25666;44.350;9.222;2023-06-14T12:01:50;101003.00;;;23.93;100.00
32324;BME280;25666;44.350;9.222;2023-06-14T12:04:29;101010.34;;;23.90;100.00
32324;BME280;25666;44.350;9.222;2023-06-14T12:06:55;101015.91;;;23.97;100.00
32324;BME280;25666;44.350;9.222;2023-06-14T12:09:23;101010.97;;;24.02;100.00
32324;BME280;25666;44.350;9.222;2023-06-14T12:11:51;101015.03;;;24.00;100.00
32324;BME280;25666;44.350;9.222;2023-06-14T12:14:33;101012.63;;;23.99;100.00
32324;BME280;25666;44.350;9.222;2023-06-14T12:17:06;101010.06;;;23.85;100.00
32324;BME280;25666;44.350;9.222;2023-06-14T12:19:32;101009.06;;;23.95;100.00
32324;BME280;25666;44.350;9.222;2023-06-14T12:21:59;100997.38;;;23.89;100.00
32324;BME280;25666;44.350;9.222;2023-06-14T12:24:29;101003.06;;;23.89;100.00
32324;BME280;25666;44.350;9.222;2023-06-14T12:26:57;100995.88;;;23.62;100.00
32324;BME280;25666;44.350;9.222;2023-06-14T12:29:25;100989.41;;;23.81;100.00
32324;BME280;25666;44.350;9.222;2023-06-14T12:31:51;100993.94;;;23.78;100.00
32324;BME280;25666;44.350;9.222;2023-06-14T12:34:16;100999.91;;;23.84;100.00
32324;BME280;25666;44.350;9.222;2023-06-14T12:36:42;101007.16;;;23.65;100.00
32324;BME280;25666;44.350;9.222;2023-06-14T12:39:10;101001.09;;;23.40;100.00
32324;BME280;25666;44.350;9.222;2023-06-14T12:41:36;101011.38;;;23.07;100.00
32324;BME280;25666;44.350;9.222;2023-06-14T12:44:02;101005.59;;;23.37;100.00
32324;BME280;25666;44.350;9.222;2023-06-14T12:46:32;101009.06;;;22.99;100.00
32324;BME280;25666;44.350;9.222;2023-06-14T12:48:58;101002.53;;;23.02;100.00
32324;BME280;25666;44.350;9.222;2023-06-14T12:51:24;101009.53;;;23.20;100.00
32324;BME280;25666;44.350;9.222;2023-06-14T12:53:51;101002.59;;;22.98;100.00
32324;BME280;25666;44.350;9.222;2023-06-14T12:56:17;100997.06;;;23.14;100.00
32324;BME280;25666;44.350;9.222;2023-06-14T12:58:42;100996.56;;;23.19;100.00
32324;BME280;25666;44.350;9.222;2023-06-14T13:01:08;100998.84;;;23.28;100.00